Time;durP1;ratioP1;P1;durP2;ratioP2;P2;SDS_P1;SDS_P2;PMS_P1;PMS_P2;Temp;Humidity;BMP_temperature;BMP_pressure;BME280_temperature;BME280_humidity;BME280_pressure;Samples;Min_cycle;Max_cycle;Signal;HPM_P1;HPM_P2
2022/09/17 00:00:20;;;;;;;;;;;;;;;10.93;92.24;101351.09;5093970;28;19935;-35
2022/09/17 00:02:50;;;;;;;;;;;;;;;10.95;92.96;101359.78;5094229;28;20011;-35
2022/09/17 00:05:15;;;;;;;;;;;;;;;10.94;92.96;101355.44;5093864;28;19920;-36
2022/09/17 00:07:40;;;;;;;;;;;;;;;10.94;93.75;101366.25;5094374;28;19912;-35
2022/09/17 00:10:06;;;;;;;;;;;;;;;10.95;93.01;101367.91;5093979;28;19924;-35
2022/09/17 00:12:31;;;;;;;;;;;;;;;10.95;92.84;101362.50;5093658;28;19912;-35
2022/09/17 00:14:56;;;;;;;;;;;;;;;10.95;94.23;101365.22;5094013;28;19915;-35
2022/09/17 00:17:22;;;;;;;;;;;;;;;10.96;93.10;101368.75;5094370;28;19912;-34
2022/09/17 00:19:48;;;;;;;;;;;;;;;10.98;93.10;101366.63;5094161;28;19916;-34
2022/09/17 00:22:13;;;;;;;;;;;;;;;10.99;92.92;101365.59;5093881;28;19912;-34
2022/09/17 00:24:39;;;;;;;;;;;;;;;10.99;92.46;101371.84;5093783;28;19919;-34
2022/09/17 00:27:04;;;;;;;;;;;;;;;10.99;93.03;101366.44;5094099;28;19934;-34
2022/09/17 00:29:29;;;;;;;;;;;;;;;11.00;92.75;101367.25;5094149;28;20023;-34
2022/09/17 00:31:54;;;;;;;;;;;;;;;10.99;93.29;101371.84;5093279;28;19912;-35
2022/09/17 00:34:19;;;;;;;;;;;;;;;11.00;92.88;101373.50;5093284;28;19912;-35
2022/09/17 00:36:45;;;;;;;;;;;;;;;11.01;92.55;101377.84;5093624;28;19912;-34
2022/09/17 00:39:10;;;;;;;;;;;;;;;11.01;92.30;101379.72;5093594;28;20272;-34
2022/09/17 00:41:37;;;;;;;;;;;;;;;11.01;92.69;101374.31;5094335;28;19912;-35
2022/09/17 00:44:20;;;;;;;;;;;;;;;11.01;92.88;101380.56;5093530;28;19912;-35
2022/09/17 00:46:46;;;;;;;;;;;;;;;10.99;92.80;101373.72;5093536;28;19919;-35
2022/09/17 00:49:15;;;;;;;;;;;;;;;10.98;93.17;101377.44;5093186;28;19915;-35
2022/09/17 00:51:48;;;;;;;;;;;;;;;10.98;93.58;101380.16;5093462;28;20402;-35
2022/09/17 00:54:14;;;;;;;;;;;;;;;10.97;93.46;101386.63;5093690;28;20053;-35
2022/09/17 00:56:40;;;;;;;;;;;;;;;10.98;92.69;101380.16;5093112;28;19966;-35
2022/09/17 00:59:06;;;;;;;;;;;;;;;10.98;92.90;101389.13;5093532;28;19912;-35
2022/09/17 01:01:31;;;;;;;;;;;;;;;10.96;92.21;101393.09;5093413;28;19919;-35
2022/09/17 01:03:56;;;;;;;;;;;;;;;10.95;92.67;101386.84;5094454;28;19923;-35
2022/09/17 01:06:41;;;;;;;;;;;;;;;10.94;92.72;101389.78;5093559;28;19916;-35
2022/09/17 01:09:15;;;;;;;;;;;;;;;10.93;92.37;101397.09;5051134;28;19913;-34
2022/09/17 01:11:40;;;;;;;;;;;;;;;10.94;92.59;101387.91;5050537;28;19917;-35
2022/09/17 01:14:08;;;;;;;;;;;;;;;10.95;92.50;101391.44;5051353;28;19919;-35
2022/09/17 01:16:57;;;;;;;;;;;;;;;10.95;93.18;101394.16;5050556;28;20373;-35
2022/09/17 01:19:40;;;;;;;;;;;;;;;10.94;92.46;101406.84;5051068;28;19937;-35
2022/09/17 01:22:26;;;;;;;;;;;;;;;10.94;92.59;101408.72;5050560;28;19920;-35
2022/09/17 01:24:57;;;;;;;;;;;;;;;10.92;92.70;101406.22;5050062;28;19944;-35
2022/09/17 01:27:32;;;;;;;;;;;;;;;10.92;92.62;101406.22;5050777;28;19916;-35
2022/09/17 01:30:09;;;;;;;;;;;;;;;10.93;92.24;101407.91;5050502;28;20073;-35
2022/09/17 01:32:42;;;;;;;;;;;;;;;10.92;92.35;101398.09;5050932;28;19932;-35
2022/09/17 01:35:16;;;;;;;;;;;;;;;10.93;92.24;101404.34;5050453;28;19968;-35
2022/09/17 01:38:00;;;;;;;;;;;;;;;10.92;92.06;101414.34;5050885;28;19912;-35
2022/09/17 01:40:26;;;;;;;;;;;;;;;10.93;91.95;101410.63;5050621;28;20015;-35
2022/09/17 01:42:51;;;;;;;;;;;;;;;10.91;92.55;101407.28;5050590;28;20405;-35
2022/09/17 01:45:16;;;;;;;;;;;;;;;10.92;92.52;101416.22;5057275;28;19924;-35
2022/09/17 01:47:46;;;;;;;;;;;;;;;10.92;92.06;101419.75;5097576;28;19919;-35
2022/09/17 01:50:16;;;;;;;;;;;;;;;10.93;92.23;101415.16;5096823;28;19919;-35
2022/09/17 01:52:42;;;;;;;;;;;;;;;10.92;91.95;101418.94;5097054;28;19912;-35
2022/09/17 01:55:10;;;;;;;;;;;;;;;10.90;92.70;101426.44;5097460;28;20278;-35
2022/09/17 01:57:37;;;;;;;;;;;;;;;10.88;92.05;101417.69;5096359;28;19919;-35
2022/09/17 02:00:11;;;;;;;;;;;;;;;10.85;91.78;101418.16;5096381;28;20275;-35
2022/09/17 02:02:41;;;;;;;;;;;;;;;10.82;92.05;101419.41;5096888;28;20340;-35
2022/09/17 02:05:22;;;;;;;;;;;;;;;10.82;92.46;101420.22;5096519;28;19916;-35
2022/09/17 02:07:56;;;;;;;;;;;;;;;10.82;92.55;101417.53;5096519;28;19916;-34
2022/09/17 02:10:28;;;;;;;;;;;;;;;10.81;93.02;101417.75;5096329;28;19955;-35
2022/09/17 02:12:55;;;;;;;;;;;;;;;10.79;92.36;101418.00;5096152;28;19912;-35
2022/09/17 02:15:31;;;;;;;;;;;;;;;10.80;93.13;101422.34;5096431;28;19912;-35
2022/09/17 02:18:02;;;;;;;;;;;;;;;10.80;92.99;101430.47;5097346;28;20038;-35
2022/09/17 02:20:37;;;;;;;;;;;;;;;10.80;92.54;101421.50;5096580;28;19916;-35
2022/09/17 02:23:06;;;;;;;;;;;;;;;10.80;92.90;101418.81;5096710;28;19912;-35
2022/09/17 02:25:40;;;;;;;;;;;;;;;10.81;93.04;101412.34;5096161;28;19919;-35
2022/09/17 02:28:09;;;;;;;;;;;;;;;10.81;92.58;101420.47;5096429;28;19912;-35
2022/09/17 02:30:34;;;;;;;;;;;;;;;10.81;92.77;101417.75;5096344;28;19912;-35
2022/09/17 02:33:05;;;;;;;;;;;;;;;10.81;92.78;101425.88;5096195;28;20451;-35
2022/09/17 02:35:32;;;;;;;;;;;;;;;10.79;93.31;101418.00;5096678;28;19916;-35
2022/09/17 02:37:57;;;;;;;;;;;;;;;10.78;92.80;101412.78;5096433;28;20027;-35
2022/09/17 02:40:26;;;;;;;;;;;;;;;10.80;92.95;101426.94;5095598;28;20443;-35
2022/09/17 02:43:10;;;;;;;;;;;;;;;10.78;93.32;101434.41;5096633;28;19919;-35
2022/09/17 02:45:39;;;;;;;;;;;;;;;10.76;92.76;101436.53;5095524;28;19912;-35
2022/09/17 02:48:22;;;;;;;;;;;;;;;10.74;93.06;101436.75;5095748;28;19951;-35
2022/09/17 02:51:07;;;;;;;;;;;;;;;10.75;93.02;101434.88;5096321;28;19974;-35
2022/09/17 02:53:45;;;;;;;;;;;;;;;10.75;93.36;101432.16;5094479;28;19916;-34
2022/09/17 02:56:14;;;;;;;;;;;;;;;10.76;93.25;101431.94;5095559;28;20291;-35
2022/09/17 02:58:44;;;;;;;;;;;;;;;10.76;93.37;101423.81;5096483;28;19912;-35
2022/09/17 03:01:16;;;;;;;;;;;;;;;10.77;93.50;101421.94;5095935;28;20220;-35
2022/09/17 03:03:42;;;;;;;;;;;;;;;10.77;93.42;101430.88;5095757;28;19912;-35
2022/09/17 03:06:08;;;;;;;;;;;;;;;10.77;93.08;101428.19;5095074;28;19916;-34
2022/09/17 03:08:36;;;;;;;;;;;;;;;10.78;93.25;101429.88;5096155;28;19912;-34
2022/09/17 03:11:01;;;;;;;;;;;;;;;10.77;93.01;101424.66;5096037;28;19963;-35
2022/09/17 03:13:26;;;;;;;;;;;;;;;10.76;93.16;101426.53;5094988;28;19916;-35
2022/09/17 03:15:52;;;;;;;;;;;;;;;10.74;93.08;101431.34;5094949;28;20351;-35
2022/09/17 03:18:17;;;;;;;;;;;;;;;10.73;92.89;101436.94;5095237;28;19958;-35
2022/09/17 03:20:42;;;;;;;;;;;;;;;10.70;92.86;101440.94;5095267;28;20288;-35
2022/09/17 03:23:07;;;;;;;;;;;;;;;10.68;92.97;101440.31;5095032;28;19912;-35
2022/09/17 03:25:32;;;;;;;;;;;;;;;10.66;93.04;101437.00;5094719;28;19911;-35
2022/09/17 03:27:58;;;;;;;;;;;;;;;10.64;93.28;101446.34;5094742;28;19919;-35
2022/09/17 03:30:23;;;;;;;;;;;;;;;10.60;93.27;101437.03;5094898;28;19990;-35
2022/09/17 03:32:48;;;;;;;;;;;;;;;10.59;92.71;101438.94;5094636;28;20291;-35
2022/09/17 03:35:13;;;;;;;;;;;;;;;10.59;92.77;101433.50;5094494;28;19912;-35
2022/09/17 03:37:39;;;;;;;;;;;;;;;10.60;92.85;101427.06;5095203;28;20011;-35
2022/09/17 03:40:04;;;;;;;;;;;;;;;10.60;92.74;101420.81;5094435;28;20359;-34
2022/09/17 03:42:29;;;;;;;;;;;;;;;10.56;92.95;101423.94;5095132;28;19919;-35
2022/09/17 03:44:55;;;;;;;;;;;;;;;10.55;93.07;101419.59;5095085;28;20403;-34
2022/09/17 03:47:21;;;;;;;;;;;;;;;10.54;92.80;101428.75;5094601;28;20003;-34
2022/09/17 03:49:46;;;;;;;;;;;;;;;10.54;92.66;101423.34;5094437;28;19955;-34
2022/09/17 03:52:12;;;;;;;;;;;;;;;10.52;93.21;101417.31;5094533;28;19912;-35
2022/09/17 03:54:37;;;;;;;;;;;;;;;10.52;93.17;101422.72;5095005;28;19916;-35
2022/09/17 03:57:02;;;;;;;;;;;;;;;10.52;93.38;101430.81;5094388;28;19912;-35
2022/09/17 03:59:28;;;;;;;;;;;;;;;10.51;92.85;101431.88;5094933;28;20002;-34
2022/09/17 04:01:53;;;;;;;;;;;;;;;10.51;92.81;101440.00;5095114;28;19918;-34
2022/09/17 04:04:19;;;;;;;;;;;;;;;10.50;92.45;101438.34;5093981;28;20002;-34
2022/09/17 04:06:44;;;;;;;;;;;;;;;10.47;92.28;101454.97;5094024;28;20372;-34
2022/09/17 04:09:09;;;;;;;;;;;;;;;10.46;92.52;101453.31;5094473;28;19912;-34
2022/09/17 04:11:34;;;;;;;;;;;;;;;10.44;92.53;101450.03;5094553;28;19916;-34
2022/09/17 04:13:59;;;;;;;;;;;;;;;10.43;92.50;101451.03;5094101;28;19996;-34
2022/09/17 04:16:25;;;;;;;;;;;;;;;10.44;92.44;101458.13;5094095;28;19919;-34
2022/09/17 04:18:50;;;;;;;;;;;;;;;10.42;92.60;101457.50;5093898;28;19912;-34
2022/09/17 04:21:15;;;;;;;;;;;;;;;10.42;92.21;101457.50;5092643;28;19919;-34
2022/09/17 04:23:40;;;;;;;;;;;;;;;10.39;92.83;101449.81;5094652;28;19912;-34
2022/09/17 04:26:05;;;;;;;;;;;;;;;10.40;92.58;101459.59;5094384;28;19912;-34
2022/09/17 04:28:31;;;;;;;;;;;;;;;10.39;92.60;101466.03;5093908;28;20283;-34
2022/09/17 04:30:56;;;;;;;;;;;;;;;10.40;92.52;101462.31;5093526;28;20399;-34
2022/09/17 04:33:22;;;;;;;;;;;;;;;10.40;92.47;101454.19;5094590;28;19911;-34
2022/09/17 04:35:47;;;;;;;;;;;;;;;10.40;92.84;101456.91;5092359;28;19922;-34
2022/09/17 04:38:17;;;;;;;;;;;;;;;10.40;92.66;101459.59;5093618;28;19919;-34
2022/09/17 04:40:42;;;;;;;;;;;;;;;10.40;92.75;101453.38;5093329;28;19912;-34
2022/09/17 04:43:09;;;;;;;;;;;;;;;10.40;92.92;101454.19;5093644;28;19912;-34
2022/09/17 04:45:34;;;;;;;;;;;;;;;10.38;93.36;101458.97;5093579;28;19919;-34
2022/09/17 04:48:00;;;;;;;;;;;;;;;10.37;93.31;101457.31;5093470;28;19912;-34
2022/09/17 04:50:26;;;;;;;;;;;;;;;10.36;92.75;101462.94;5093146;28;20314;-34
2022/09/17 04:52:51;;;;;;;;;;;;;;;10.33;92.93;101458.78;5093517;28;19947;-34
2022/09/17 04:55:16;;;;;;;;;;;;;;;10.31;93.38;101456.31;5093172;28;19916;-34
2022/09/17 04:57:46;;;;;;;;;;;;;;;10.31;92.68;101459.00;5093631;28;19973;-34
2022/09/17 05:00:11;;;;;;;;;;;;;;;10.30;92.64;101459.22;5093629;28;19947;-34
2022/09/17 05:02:36;;;;;;;;;;;;;;;10.27;93.04;101457.78;5093126;28;19916;-35
2022/09/17 05:05:02;;;;;;;;;;;;;;;10.25;92.65;101461.75;5093319;28;19919;-35
2022/09/17 05:07:27;;;;;;;;;;;;;;;10.24;92.64;101460.91;5094067;28;19916;-35
2022/09/17 05:09:52;;;;;;;;;;;;;;;10.22;93.33;101464.84;5093160;28;20017;-35
2022/09/17 05:12:18;;;;;;;;;;;;;;;10.19;92.96;101457.97;5093570;28;19912;-35
2022/09/17 05:14:44;;;;;;;;;;;;;;;10.17;93.00;101456.53;5093445;28;19912;-35
2022/09/17 05:17:09;;;;;;;;;;;;;;;10.17;92.71;101470.06;5093219;28;19935;-34
2022/09/17 05:19:34;;;;;;;;;;;;;;;10.15;93.13;101477.53;5095627;28;19912;-33
2022/09/17 05:21:59;;;;;;;;;;;;;;;10.14;92.82;101470.47;5097355;28;19911;-34
2022/09/17 05:24:26;;;;;;;;;;;;;;;10.14;92.74;101462.34;5097305;28;20411;-34
2022/09/17 05:26:51;;;;;;;;;;;;;;;10.13;92.61;101469.63;5097569;28;19920;-34
2022/09/17 05:29:16;;;;;;;;;;;;;;;10.14;92.80;101475.88;5097222;28;19931;-35
2022/09/17 05:31:41;;;;;;;;;;;;;;;10.14;92.65;101479.41;5097668;28;20360;-34
2022/09/17 05:34:07;;;;;;;;;;;;;;;10.13;92.41;101482.31;5097121;28;19915;-34
2022/09/17 05:36:32;;;;;;;;;;;;;;;10.13;92.42;101485.03;5097051;28;19923;-34
2022/09/17 05:38:57;;;;;;;;;;;;;;;10.12;92.62;101488.78;5096952;28;19970;-34
2022/09/17 05:41:23;;;;;;;;;;;;;;;10.12;92.42;101491.47;5097266;28;20046;-34
2022/09/17 05:43:48;;;;;;;;;;;;;;;10.11;92.70;101487.97;5097193;28;19912;-35
2022/09/17 05:46:13;;;;;;;;;;;;;;;10.13;92.43;101493.13;5097181;28;19961;-34
2022/09/17 05:48:38;;;;;;;;;;;;;;;10.10;93.01;101491.66;5097536;28;19955;-35
2022/09/17 05:51:03;;;;;;;;;;;;;;;10.12;92.40;101491.47;5097259;28;20361;-34
2022/09/17 05:53:29;;;;;;;;;;;;;;;10.14;93.00;101500.19;5095845;28;20022;-34
2022/09/17 05:55:57;;;;;;;;;;;;;;;10.20;92.99;101496.63;5095792;28;19919;-35
2022/09/17 05:58:22;;;;;;;;;;;;;;;10.24;93.17;101509.56;5097214;28;19919;-35
2022/09/17 06:00:48;;;;;;;;;;;;;;;10.27;92.52;101506.44;5096985;28;19916;-35
2022/09/17 06:03:14;;;;;;;;;;;;;;;10.30;92.80;101514.13;5096877;28;20276;-35
2022/09/17 06:05:40;;;;;;;;;;;;;;;10.34;92.64;101503.69;5097065;28;19950;-34
2022/09/17 06:08:05;;;;;;;;;;;;;;;10.34;93.69;101519.91;5095785;28;20337;-34
2022/09/17 06:10:31;;;;;;;;;;;;;;;10.36;93.53;101511.63;5096621;28;20007;-34
2022/09/17 06:12:57;;;;;;;;;;;;;;;10.30;93.38;101491.66;5096475;28;20367;-34
2022/09/17 06:15:22;;;;;;;;;;;;;;;10.38;93.45;101502.22;5096160;28;19912;-34
2022/09/17 06:17:47;;;;;;;;;;;;;;;10.41;93.21;101501.81;5096401;28;19966;-35
2022/09/17 06:20:15;;;;;;;;;;;;;;;10.41;92.95;101515.34;5095990;28;19916;-35
2022/09/17 06:22:40;;;;;;;;;;;;;;;10.43;93.10;101517.81;5097137;28;19912;-35
2022/09/17 06:25:06;;;;;;;;;;;;;;;10.45;92.74;101518.44;5096561;28;19912;-34
2022/09/17 06:27:32;;;;;;;;;;;;;;;10.45;92.56;101511.16;5096191;28;20394;-34
2022/09/17 06:29:57;;;;;;;;;;;;;;;10.50;92.67;101522.16;5095630;28;20015;-34
2022/09/17 06:32:23;;;;;;;;;;;;;;;10.52;92.38;101517.38;5096387;28;19912;-34
2022/09/17 06:34:48;;;;;;;;;;;;;;;10.56;92.43;101518.59;5096161;28;20352;-34
2022/09/17 06:37:13;;;;;;;;;;;;;;;10.59;92.15;101517.34;5096321;28;19912;-35
2022/09/17 06:39:39;;;;;;;;;;;;;;;10.61;91.98;101517.97;5095701;28;19919;-34
2022/09/17 06:42:04;;;;;;;;;;;;;;;10.61;91.65;101517.13;5096452;28;19912;-34
2022/09/17 06:44:29;;;;;;;;;;;;;;;10.61;91.55;101517.97;5095973;28;19912;-35
2022/09/17 06:46:54;;;;;;;;;;;;;;;10.61;91.68;101515.25;5095687;28;20363;-34
2022/09/17 06:49:20;;;;;;;;;;;;;;;10.61;91.67;101519.84;5095879;28;19918;-35
2022/09/17 06:51:46;;;;;;;;;;;;;;;10.61;91.51;101525.25;5096454;28;19970;-35
2022/09/17 06:54:11;;;;;;;;;;;;;;;10.60;91.04;101521.72;5095818;28;20296;-35
2022/09/17 06:56:36;;;;;;;;;;;;;;;10.59;91.19;101517.34;5096568;28;19916;-35
2022/09/17 06:59:02;;;;;;;;;;;;;;;10.62;91.35;101521.50;5095801;28;20338;-35
2022/09/17 07:01:27;;;;;;;;;;;;;;;10.65;91.25;101519.19;5095379;28;19915;-35
2022/09/17 07:03:53;;;;;;;;;;;;;;;10.69;91.54;101514.19;5095546;28;20275;-35
2022/09/17 07:06:19;;;;;;;;;;;;;;;10.72;91.11;101517.28;5095633;28;19923;-35
2022/09/17 07:08:45;;;;;;;;;;;;;;;10.77;91.54;101527.44;5095247;28;19912;-35
2022/09/17 07:11:11;;;;;;;;;;;;;;;10.82;91.17;101527.63;5095127;28;19916;-35
2022/09/17 07:13:36;;;;;;;;;;;;;;;10.88;90.75;101520.53;5095394;28;19938;-35
2022/09/17 07:16:03;;;;;;;;;;;;;;;10.92;91.36;101527.16;5095505;28;19919;-34
2022/09/17 07:18:29;;;;;;;;;;;;;;;10.96;90.98;101523.81;5095196;28;19977;-35
2022/09/17 07:20:55;;;;;;;;;;;;;;;11.01;90.96;101531.28;5094893;28;19911;-35
2022/09/17 07:23:21;;;;;;;;;;;;;;;11.05;91.05;101527.91;5094083;28;19912;-35
2022/09/17 07:25:53;;;;;;;;;;;;;;;11.11;90.85;101525.41;5093695;28;20006;-35
2022/09/17 07:28:19;;;;;;;;;;;;;;;11.17;90.44;101521.81;5095910;28;19912;-35
2022/09/17 07:30:44;;;;;;;;;;;;;;;11.24;90.76;101533.44;5095489;28;19918;-35
2022/09/17 07:33:09;;;;;;;;;;;;;;;11.26;90.46;101531.31;5095401;28;20363;-35
2022/09/17 07:35:34;;;;;;;;;;;;;;;11.39;90.40;101538.53;5094701;28;20007;-35
2022/09/17 07:38:00;;;;;;;;;;;;;;;11.45;90.09;101529.53;5095430;28;20065;-35
2022/09/17 07:40:25;;;;;;;;;;;;;;;11.47;89.13;101525.56;5094920;28;19912;-34
2022/09/17 07:42:50;;;;;;;;;;;;;;;11.50;89.28;101532.41;5094781;28;19912;-35
2022/09/17 07:45:15;;;;;;;;;;;;;;;11.53;89.46;101529.25;5094506;28;19923;-35
2022/09/17 07:47:40;;;;;;;;;;;;;;;11.57;89.11;101523.19;5093901;28;19947;-35
2022/09/17 07:50:06;;;;;;;;;;;;;;;11.63;89.04;101517.94;5095158;28;20128;-35
2022/09/17 07:52:31;;;;;;;;;;;;;;;11.70;89.64;101524.09;5094638;28;20356;-35
2022/09/17 07:54:57;;;;;;;;;;;;;;;11.78;89.24;101521.97;5094829;28;19926;-35
2022/09/17 07:57:22;;;;;;;;;;;;;;;11.86;89.23;101520.88;5094141;28;19912;-35
2022/09/17 07:59:47;;;;;;;;;;;;;;;11.95;88.26;101524.13;5094905;28;19919;-35
2022/09/17 08:02:13;;;;;;;;;;;;;;;12.02;88.57;101525.72;5094416;28;19912;-35
2022/09/17 08:04:40;;;;;;;;;;;;;;;12.09;88.19;101518.34;5094612;28;19912;-34
2022/09/17 08:07:05;;;;;;;;;;;;;;;12.19;88.27;101530.56;5094657;28;20288;-35
2022/09/17 08:09:30;;;;;;;;;;;;;;;12.21;87.89;101533.88;5094296;28;19912;-35
2022/09/17 08:11:56;;;;;;;;;;;;;;;12.17;86.75;101535.38;5095422;28;19916;-35
2022/09/17 08:14:21;;;;;;;;;;;;;;;12.14;87.25;101524.97;5094188;28;19912;-35
2022/09/17 08:16:46;;;;;;;;;;;;;;;12.15;87.29;101524.78;5093927;28;19915;-35
2022/09/17 08:19:12;;;;;;;;;;;;;;;12.16;87.37;101526.41;5094023;28;19912;-35
2022/09/17 08:21:37;;;;;;;;;;;;;;;12.20;88.00;101533.06;5094695;28;19934;-35
2022/09/17 08:24:02;;;;;;;;;;;;;;;12.31;88.08;101523.34;5093986;28;19938;-35
2022/09/17 08:26:28;;;;;;;;;;;;;;;12.44;87.22;101525.06;5094031;28;19962;-35
2022/09/17 08:28:55;;;;;;;;;;;;;;;12.55;85.93;101522.44;5094312;28;19911;-35
2022/09/17 08:31:21;;;;;;;;;;;;;;;12.66;86.09;101520.00;5094194;28;20347;-35
2022/09/17 08:33:46;;;;;;;;;;;;;;;12.77;86.38;101527.34;5094535;28;20373;-35
2022/09/17 08:36:12;;;;;;;;;;;;;;;12.86;85.95;101518.66;5094112;28;19953;-35
2022/09/17 08:38:39;;;;;;;;;;;;;;;12.99;85.92;101525.81;5093844;28;19923;-35
2022/09/17 08:41:13;;;;;;;;;;;;;;;13.07;83.54;101525.47;5093742;28;19957;-35
2022/09/17 08:43:44;;;;;;;;;;;;;;;13.20;84.98;101523.63;5092532;28;20022;-35
2022/09/17 08:46:10;;;;;;;;;;;;;;;13.34;83.90;101525.94;5093899;28;19964;-35
2022/09/17 08:48:41;;;;;;;;;;;;;;;13.46;83.82;101517.81;5093768;28;20323;-35
2022/09/17 08:51:14;;;;;;;;;;;;;;;13.63;83.03;101529.66;5093596;28;19923;-35
2022/09/17 08:54:15;;;;;;;;;;;;;;;13.77;81.93;101524.00;5093530;28;19959;-35
2022/09/17 08:56:43;;;;;;;;;;;;;;;13.81;79.90;101520.59;5050988;28;19920;-35
2022/09/17 08:59:14;;;;;;;;;;;;;;;13.73;79.97;101525.53;5051074;28;20015;-35
2022/09/17 09:01:44;;;;;;;;;;;;;;;13.67;81.28;101529.22;5050927;28;19944;-35
2022/09/17 09:04:12;;;;;;;;;;;;;;;13.60;81.99;101535.56;5050999;28;20340;-35
2022/09/17 09:06:48;;;;;;;;;;;;;;;13.54;81.37;101539.22;5050847;28;19924;-35
2022/09/17 09:09:17;;;;;;;;;;;;;;;13.36;79.80;101540.13;5051179;28;19913;-35
2022/09/17 09:11:44;;;;;;;;;;;;;;;13.21;81.22;101547.00;5051107;28;19952;-35
2022/09/17 09:14:15;;;;;;;;;;;;;;;13.09;80.32;101542.38;5050845;28;19913;-35
2022/09/17 09:16:44;;;;;;;;;;;;;;;13.03;80.14;101542.44;5051424;28;20027;-35
2022/09/17 09:19:22;;;;;;;;;;;;;;;13.14;80.51;101539.78;5051274;28;19936;-35
2022/09/17 09:21:47;;;;;;;;;;;;;;;13.33;80.00;101537.06;5050818;28;19921;-35
2022/09/17 09:24:16;;;;;;;;;;;;;;;13.54;79.78;101541.09;5050925;28;19913;-35
2022/09/17 09:26:46;;;;;;;;;;;;;;;13.73;78.47;101539.13;5051570;28;19913;-35
2022/09/17 09:29:17;;;;;;;;;;;;;;;13.92;78.37;101546.13;5051451;28;20380;-35
2022/09/17 09:31:50;;;;;;;;;;;;;;;14.04;78.28;101546.94;5090991;28;20283;-35
2022/09/17 09:34:16;;;;;;;;;;;;;;;14.04;77.26;101555.09;5093038;28;20375;-35
2022/09/17 09:36:41;;;;;;;;;;;;;;;13.99;76.89;101544.09;5093093;28;19942;-35
2022/09/17 09:39:06;;;;;;;;;;;;;;;14.02;76.39;101551.78;5093655;28;19978;-35
2022/09/17 09:41:46;;;;;;;;;;;;;;;14.05;76.36;101548.56;5093833;28;19965;-35
2022/09/17 09:44:13;;;;;;;;;;;;;;;14.23;76.24;101552.25;5093139;28;19912;-35
2022/09/17 09:46:46;;;;;;;;;;;;;;;14.40;74.22;101556.72;5093701;28;19919;-35
2022/09/17 09:49:17;;;;;;;;;;;;;;;14.53;74.04;101552.94;5092461;28;19912;-36
2022/09/17 09:51:42;;;;;;;;;;;;;;;14.56;75.04;101552.47;5093537;28;19912;-35
2022/09/17 09:54:20;;;;;;;;;;;;;;;14.60;75.60;101541.94;5091970;28;20295;-35
2022/09/17 09:56:45;;;;;;;;;;;;;;;14.75;74.64;101541.41;5093416;28;19912;-35
2022/09/17 09:59:11;;;;;;;;;;;;;;;14.84;73.09;101537.25;5093049;28;20003;-35
2022/09/17 10:01:38;;;;;;;;;;;;;;;14.75;71.38;101542.25;5092817;28;20017;-35
2022/09/17 10:04:13;;;;;;;;;;;;;;;14.75;72.40;101533.25;5093489;28;19956;-35
2022/09/17 10:06:39;;;;;;;;;;;;;;;14.81;71.80;101543.16;5095933;28;19912;-35
2022/09/17 10:09:04;;;;;;;;;;;;;;;14.87;70.18;101544.91;5096766;28;19912;-35
2022/09/17 10:11:32;;;;;;;;;;;;;;;15.05;72.10;101550.16;5097154;28;20006;-35
2022/09/17 10:14:16;;;;;;;;;;;;;;;15.26;70.08;101542.38;5097113;28;20375;-35
2022/09/17 10:16:41;;;;;;;;;;;;;;;15.43;69.68;101560.41;5096752;28;19958;-35
2022/09/17 10:19:06;;;;;;;;;;;;;;;15.33;70.46;101553.97;5097324;28;19964;-35
2022/09/17 10:21:31;;;;;;;;;;;;;;;15.32;72.29;101560.44;5096515;28;19950;-34
2022/09/17 10:23:57;;;;;;;;;;;;;;;15.17;72.02;101550.94;5096429;28;20367;-34
2022/09/17 10:26:24;;;;;;;;;;;;;;;14.97;72.84;101549.72;5096353;28;20374;-34
2022/09/17 10:28:50;;;;;;;;;;;;;;;14.67;73.68;101540.72;5096974;28;19935;-35
2022/09/17 10:31:15;;;;;;;;;;;;;;;14.58;74.78;101547.59;5097137;28;19974;-35
2022/09/17 10:33:50;;;;;;;;;;;;;;;14.65;75.36;101540.13;5096587;28;19934;-35
2022/09/17 10:36:16;;;;;;;;;;;;;;;14.72;75.51;101534.53;5096168;28;19977;-34
2022/09/17 10:38:43;;;;;;;;;;;;;;;14.89;74.58;101534.63;5096370;28;19912;-35
2022/09/17 10:41:13;;;;;;;;;;;;;;;15.02;75.61;101531.56;5096461;28;19952;-35
2022/09/17 10:43:38;;;;;;;;;;;;;;;15.15;72.10;101531.28;5096280;28;19918;-35
2022/09/17 10:46:06;;;;;;;;;;;;;;;15.28;73.15;101519.25;5096062;28;20010;-35
2022/09/17 10:48:37;;;;;;;;;;;;;;;15.36;73.29;101526.19;5096316;28;20340;-36
2022/09/17 10:51:05;;;;;;;;;;;;;;;15.49;72.72;101517.69;5096018;28;20010;-36
2022/09/17 10:53:30;;;;;;;;;;;;;;;15.58;69.29;101527.13;5095877;28;19912;-34
2022/09/17 10:56:14;;;;;;;;;;;;;;;15.65;70.33;101522.34;5096063;28;19912;-34
2022/09/17 10:58:56;;;;;;;;;;;;;;;15.80;71.40;101526.41;5096644;28;20310;-34
2022/09/17 11:01:27;;;;;;;;;;;;;;;15.99;69.94;101519.59;5095739;28;19916;-35
2022/09/17 11:04:02;;;;;;;;;;;;;;;16.10;69.22;101520.56;5096140;28;19934;-35
2022/09/17 11:06:46;;;;;;;;;;;;;;;16.11;68.16;101523.06;5095709;28;19915;-35
2022/09/17 11:09:29;;;;;;;;;;;;;;;15.88;69.20;101524.09;5095645;28;19912;-35
2022/09/17 11:11:59;;;;;;;;;;;;;;;15.72;68.57;101521.38;5096207;28;19920;-36
2022/09/17 11:14:36;;;;;;;;;;;;;;;15.70;69.49;101514.25;5095771;28;19915;-36
2022/09/17 11:17:08;;;;;;;;;;;;;;;15.83;68.42;101512.28;5095043;28;19912;-35
2022/09/17 11:19:44;;;;;;;;;;;;;;;16.05;70.43;101510.41;5095757;28;19965;-36
2022/09/17 11:22:22;;;;;;;;;;;;;;;16.26;69.32;101505.25;5095707;28;19923;-36
2022/09/17 11:24:50;;;;;;;;;;;;;;;16.30;66.35;101506.38;5095336;28;19920;-36
2022/09/17 11:27:46;;;;;;;;;;;;;;;16.46;68.20;101500.03;5095498;28;20352;-36
2022/09/17 11:30:16;;;;;;;;;;;;;;;16.38;63.34;101501.31;5052517;28;19962;-35
2022/09/17 11:32:55;;;;;;;;;;;;;;;16.45;66.72;101509.31;5053099;28;19912;-35
2022/09/17 11:35:23;;;;;;;;;;;;;;;16.46;65.02;101513.69;5052976;28;19927;-35
2022/09/17 11:37:48;;;;;;;;;;;;;;;16.21;65.54;101503.28;5052583;28;19912;-35
2022/09/17 11:40:23;;;;;;;;;;;;;;;16.24;67.04;101500.03;5052996;28;19919;-35
2022/09/17 11:43:11;;;;;;;;;;;;;;;16.37;65.16;101496.94;5052639;28;20004;-35
2022/09/17 11:45:38;;;;;;;;;;;;;;;16.56;64.32;101491.16;5052286;28;19920;-34
2022/09/17 11:48:12;;;;;;;;;;;;;;;16.70;66.06;101497.88;5035972;28;19920;-34
2022/09/17 11:50:44;;;;;;;;;;;;;;;16.77;65.21;101492.22;5052999;28;20023;-35
2022/09/17 11:53:22;;;;;;;;;;;;;;;16.71;65.51;101488.59;5052594;28;20015;-35
2022/09/17 11:55:52;;;;;;;;;;;;;;;16.63;65.10;101486.31;5052771;28;20349;-35
2022/09/17 11:58:27;;;;;;;;;;;;;;;16.75;65.55;101480.75;5052305;28;20445;-35
2022/09/17 12:00:57;;;;;;;;;;;;;;;16.70;64.21;101465.94;5052281;28;19912;-35
2022/09/17 12:03:34;;;;;;;;;;;;;;;16.72;64.93;101469.25;5052252;28;19920;-35
2022/09/17 12:06:05;;;;;;;;;;;;;;;16.63;61.84;101464.47;5063620;28;20290;-35
2022/09/17 12:08:40;;;;;;;;;;;;;;;16.43;62.78;101467.78;5094486;28;19955;-35
2022/09/17 12:11:17;;;;;;;;;;;;;;;16.23;63.93;101482.00;5094592;28;20007;-35
2022/09/17 12:13:45;;;;;;;;;;;;;;;15.98;69.19;101500.75;5094213;28;20283;-35
2022/09/17 12:16:10;;;;;;;;;;;;;;;15.63;71.47;101497.25;5094730;28;20015;-35
2022/09/17 12:18:35;;;;;;;;;;;;;;;15.26;73.60;101499.59;5094079;28;20322;-35
2022/09/17 12:21:03;;;;;;;;;;;;;;;15.00;75.44;101494.78;5095110;28;19965;-35
2022/09/17 12:23:39;;;;;;;;;;;;;;;15.08;74.33;101491.63;5093967;28;19919;-35
2022/09/17 12:26:07;;;;;;;;;;;;;;;15.33;75.25;101486.66;5094535;28;19912;-35
2022/09/17 12:28:37;;;;;;;;;;;;;;;15.52;75.12;101489.09;5093529;28;20249;-35
2022/09/17 12:31:13;;;;;;;;;;;;;;;15.79;78.79;101481.13;5094379;28;19912;-35
2022/09/17 12:33:51;;;;;;;;;;;;;;;16.04;77.98;101472.47;5094513;28;19912;-35
2022/09/17 12:36:28;;;;;;;;;;;;;;;16.23;75.35;101468.38;5094334;28;19982;-34
2022/09/17 12:39:01;;;;;;;;;;;;;;;16.29;74.67;101466.50;5093960;28;20015;-34
2022/09/17 12:41:42;;;;;;;;;;;;;;;16.51;73.56;101467.34;5093659;28;19915;-34